sensor_id;sensor_type;location;lat;lon;timestamp;pressure;altitude;pressure_sealevel;temperature;humidity
967;BME280;56108;48.730;9.304;2023-12-20T00:01:59;97580.88;;;5.48;100.00
967;BME280;56108;48.730;9.304;2023-12-20T00:04:11;97572.75;;;5.53;100.00
967;BME280;56108;48.730;9.304;2023-12-20T00:06:19;97565.22;;;5.45;100.00
967;BME280;56108;48.730;9.304;2023-12-20T00:08:28;97560.66;;;5.48;100.00
967;BME280;56108;48.730;9.304;2023-12-20T00:10:36;97547.50;;;5.47;100.00
967;BME280;56108;48.730;9.304;2023-12-20T00:12:44;97551.09;;;5.46;100.00
967;BME280;56108;48.730;9.304;2023-12-20T00:14:53;97546.13;;;5.40;100.00
967;BME280;56108;48.730;9.304;2023-12-20T00:17:01;97549.06;;;5.51;100.00
967;BME280;56108;48.730;9.304;2023-12-20T00:19:12;97544.09;;;5.45;100.00
967;BME280;56108;48.730;9.304;2023-12-20T00:21:17;97539.91;;;5.58;100.00
967;BME280;56108;48.730;9.304;2023-12-20T00:23:26;97540.06;;;5.55;100.00
967;BME280;56108;48.730;9.304;2023-12-20T00:25:34;97533.84;;;5.73;100.00
967;BME280;56108;48.730;9.304;2023-12-20T00:27:44;97529.50;;;5.55;100.00
967;BME280;56108;48.730;9.304;2023-12-20T00:29:53;97532.88;;;5.59;100.00
967;BME280;56108;48.730;9.304;2023-12-20T00:32:01;97521.69;;;5.54;100.00
967;BME280;56108;48.730;9.304;2023-12-20T00:34:12;97529.19;;;5.61;100.00
967;BME280;56108;48.730;9.304;2023-12-20T00:36:20;97524.56;;;5.49;100.00
967;BME280;56108;48.730;9.304;2023-12-20T00:38:29;97514.06;;;5.65;100.00
967;BME280;56108;48.730;9.304;2023-12-20T00:40:37;97519.66;;;5.59;100.00
967;BME280;56108;48.730;9.304;2023-12-20T00:42:45;97525.19;;;5.54;100.00
967;BME280;56108;48.730;9.304;2023-12-20T00:44:53;97516.84;;;5.44;100.00
967;BME280;56108;48.730;9.304;2023-12-20T00:46:59;97509.09;;;5.41;100.00
967;BME280;56108;48.730;9.304;2023-12-20T00:49:07;97503.03;;;5.39;100.00
967;BME280;56108;48.730;9.304;2023-12-20T00:51:19;97518.97;;;5.38;100.00
967;BME280;56108;48.730;9.304;2023-12-20T00:53:27;97504.88;;;5.37;100.00
967;BME280;56108;48.730;9.304;2023-12-20T00:55:32;97505.72;;;5.20;100.00
967;BME280;56108;48.730;9.304;2023-12-20T00:57:43;97495.66;;;5.29;100.00
967;BME280;56108;48.730;9.304;2023-12-20T00:59:53;97490.69;;;5.22;100.00
967;BME280;56108;48.730;9.304;2023-12-20T01:01:58;97478.34;;;5.23;100.00
967;BME280;56108;48.730;9.304;2023-12-20T01:04:07;97483.56;;;5.24;100.00
967;BME280;56108;48.730;9.304;2023-12-20T01:06:18;97484.50;;;5.23;100.00
967;BME280;56108;48.730;9.304;2023-12-20T01:08:29;97485.78;;;5.32;100.00
967;BME280;56108;48.730;9.304;2023-12-20T01:10:35;97481.63;;;5.28;100.00
967;BME280;56108;48.730;9.304;2023-12-20T01:12:43;97486.50;;;5.36;100.00
967;BME280;56108;48.730;9.304;2023-12-20T01:14:49;97485.16;;;5.27;100.00
967;BME280;56108;48.730;9.304;2023-12-20T01:16:59;97472.06;;;5.08;100.00
967;BME280;56108;48.730;9.304;2023-12-20T01:19:04;97472.50;;;5.16;100.00
967;BME280;56108;48.730;9.304;2023-12-20T01:21:13;97467.56;;;5.28;100.00
967;BME280;56108;48.730;9.304;2023-12-20T01:23:24;97473.44;;;5.15;100.00
967;BME280;56108;48.730;9.304;2023-12-20T01:25:32;97468.16;;;5.15;100.00
967;BME280;56108;48.730;9.304;2023-12-20T01:27:42;97465.31;;;5.20;100.00
967;BME280;56108;48.730;9.304;2023-12-20T01:29:48;97459.31;;;5.16;100.00
967;BME280;56108;48.730;9.304;2023-12-20T01:31:56;97462.03;;;5.15;100.00
967;BME280;56108;48.730;9.304;2023-12-20T01:34:05;97468.13;;;5.17;100.00
967;BME280;56108;48.730;9.304;2023-12-20T01:36:13;97455.38;;;5.08;100.00
967;BME280;56108;48.730;9.304;2023-12-20T01:38:24;97457.78;;;5.12;100.00
967;BME280;56108;48.730;9.304;2023-12-20T01:40:35;97451.66;;;5.12;100.00
967;BME280;56108;48.730;9.304;2023-12-20T01:42:43;97443.97;;;5.07;100.00
967;BME280;56108;48.730;9.304;2023-12-20T01:44:51;97447.28;;;5.11;100.00
967;BME280;56108;48.730;9.304;2023-12-20T01:47:00;97443.81;;;5.10;100.00
967;BME280;56108;48.730;9.304;2023-12-20T01:49:09;97441.88;;;5.14;100.00
967;BME280;56108;48.730;9.304;2023-12-20T01:51:18;97442.59;;;5.17;100.00
967;BME280;56108;48.730;9.304;2023-12-20T01:53:30;97436.47;;;5.17;100.00
967;BME280;56108;48.730;9.304;2023-12-20T01:55:40;97430.56;;;5.12;100.00
967;BME280;56108;48.730;9.304;2023-12-20T01:57:46;97431.94;;;5.02;100.00
967;BME280;56108;48.730;9.304;2023-12-20T01:59:55;97429.22;;;5.03;100.00
967;BME280;56108;48.730;9.304;2023-12-20T02:02:03;97423.34;;;4.98;100.00
967;BME280;56108;48.730;9.304;2023-12-20T02:04:12;97419.44;;;5.05;100.00
967;BME280;56108;48.730;9.304;2023-12-20T02:06:22;97411.84;;;4.99;100.00
967;BME280;56108;48.730;9.304;2023-12-20T02:08:34;97409.03;;;4.85;100.00
967;BME280;56108;48.730;9.304;2023-12-20T02:10:44;97406.25;;;4.88;100.00
967;BME280;56108;48.730;9.304;2023-12-20T02:12:53;97399.91;;;4.92;100.00
967;BME280;56108;48.730;9.304;2023-12-20T02:14:58;97392.44;;;5.00;100.00
967;BME280;56108;48.730;9.304;2023-12-20T02:17:07;97388.72;;;5.04;100.00
967;BME280;56108;48.730;9.304;2023-12-20T02:19:15;97393.38;;;4.99;100.00
967;BME280;56108;48.730;9.304;2023-12-20T02:21:31;97386.72;;;5.09;100.00
967;BME280;56108;48.730;9.304;2023-12-20T02:23:40;97391.22;;;5.07;100.00
967;BME280;56108;48.730;9.304;2023-12-20T02:25:48;97387.88;;;5.04;100.00
967;BME280;56108;48.730;9.304;2023-12-20T02:27:57;97384.84;;;4.94;100.00
967;BME280;56108;48.730;9.304;2023-12-20T02:30:06;97386.94;;;4.87;100.00
967;BME280;56108;48.730;9.304;2023-12-20T02:32:15;97386.72;;;4.92;100.00
967;BME280;56108;48.730;9.304;2023-12-20T02:34:24;97388.72;;;5.04;100.00
967;BME280;56108;48.730;9.304;2023-12-20T02:36:33;97382.06;;;4.97;100.00
967;BME280;56108;48.730;9.304;2023-12-20T02:38:41;97383.16;;;4.93;100.00
967;BME280;56108;48.730;9.304;2023-12-20T02:40:50;97386.50;;;4.96;100.00
967;BME280;56108;48.730;9.304;2023-12-20T02:42:58;97385.69;;;4.94;100.00
967;BME280;56108;48.730;9.304;2023-12-20T02:45:08;97386.00;;;4.88;100.00
967;BME280;56108;48.730;9.304;2023-12-20T02:47:17;97388.28;;;4.96;100.00
967;BME280;56108;48.730;9.304;2023-12-20T02:49:23;97388.88;;;5.01;100.00
967;BME280;56108;48.730;9.304;2023-12-20T02:51:34;97386.78;;;4.90;100.00
967;BME280;56108;48.730;9.304;2023-12-20T02:53:44;97387.66;;;4.91;100.00
967;BME280;56108;48.730;9.304;2023-12-20T02:55:52;97384.00;;;4.93;100.00
967;BME280;56108;48.730;9.304;2023-12-20T02:58:00;97383.06;;;4.94;100.00
967;BME280;56108;48.730;9.304;2023-12-20T03:00:10;97382.00;;;4.98;100.00
967;BME280;56108;48.730;9.304;2023-12-20T03:02:19;97379.34;;;4.98;100.00
967;BME280;56108;48.730;9.304;2023-12-20T03:04:28;97388.28;;;4.96;100.00
967;BME280;56108;48.730;9.304;2023-12-20T03:06:41;97382.69;;;5.02;100.00
967;BME280;56108;48.730;9.304;2023-12-20T03:08:47;97389.81;;;5.00;100.00
967;BME280;56108;48.730;9.304;2023-12-20T03:10:55;97390.66;;;5.01;100.00
967;BME280;56108;48.730;9.304;2023-12-20T03:13:04;97387.19;;;5.00;100.00
967;BME280;56108;48.730;9.304;2023-12-20T03:15:12;97390.59;;;5.02;100.00
967;BME280;56108;48.730;9.304;2023-12-20T03:17:20;97393.56;;;5.13;100.00
967;BME280;56108;48.730;9.304;2023-12-20T03:19:29;97401.59;;;5.10;100.00
967;BME280;56108;48.730;9.304;2023-12-20T03:21:40;97397.97;;;5.13;100.00
967;BME280;56108;48.730;9.304;2023-12-20T03:23:48;97403.16;;;5.14;100.00
967;BME280;56108;48.730;9.304;2023-12-20T03:25:56;97404.56;;;5.04;100.00
967;BME280;56108;48.730;9.304;2023-12-20T03:28:05;97401.22;;;5.01;100.00
967;BME280;56108;48.730;9.304;2023-12-20T03:30:14;97398.66;;;4.99;100.00
967;BME280;56108;48.730;9.304;2023-12-20T03:32:22;97405.59;;;5.02;100.00
967;BME280;56108;48.730;9.304;2023-12-20T03:34:31;97403.84;;;4.83;100.00
967;BME280;56108;48.730;9.304;2023-12-20T03:36:42;97398.66;;;4.99;100.00
967;BME280;56108;48.730;9.304;2023-12-20T03:38:53;97402.84;;;5.03;100.00
967;BME280;56108;48.730;9.304;2023-12-20T03:41:01;97404.56;;;5.04;100.00
967;BME280;56108;48.730;9.304;2023-12-20T03:43:11;97406.75;;;4.96;100.00
967;BME280;56108;48.730;9.304;2023-12-20T03:45:19;97413.09;;;5.09;100.00
967;BME280;56108;48.730;9.304;2023-12-20T03:47:28;97406.56;;;4.99;100.00
967;BME280;56108;48.730;9.304;2023-12-20T03:49:36;97410.16;;;4.98;100.00
967;BME280;56108;48.730;9.304;2023-12-20T03:51:47;97404.97;;;4.96;100.00
967;BME280;56108;48.730;9.304;2023-12-20T03:53:55;97415.41;;;4.98;100.00
967;BME280;56108;48.730;9.304;2023-12-20T03:56:06;97412.59;;;5.01;100.00
967;BME280;56108;48.730;9.304;2023-12-20T03:58:14;97418.13;;;4.96;100.00
967;BME280;56108;48.730;9.304;2023-12-20T04:00:23;97426.91;;;4.97;100.00
967;BME280;56108;48.730;9.304;2023-12-20T04:02:29;97428.59;;;4.98;100.00
967;BME280;56108;48.730;9.304;2023-12-20T04:04:38;97425.88;;;5.00;100.00
967;BME280;56108;48.730;9.304;2023-12-20T04:06:50;97432.72;;;5.04;100.00
967;BME280;56108;48.730;9.304;2023-12-20T04:09:00;97436.53;;;4.98;100.00
967;BME280;56108;48.730;9.304;2023-12-20T04:11:08;97437.59;;;4.94;100.00
967;BME280;56108;48.730;9.304;2023-12-20T04:13:14;97444.25;;;5.01;100.00
967;BME280;56108;48.730;9.304;2023-12-20T04:15:22;97446.34;;;4.94;100.00
967;BME280;56108;48.730;9.304;2023-12-20T04:17:31;97448.63;;;5.02;100.00
967;BME280;56108;48.730;9.304;2023-12-20T04:19:39;97443.34;;;5.02;100.00
967;BME280;56108;48.730;9.304;2023-12-20T04:21:51;97438.94;;;5.03;100.00
967;BME280;56108;48.730;9.304;2023-12-20T04:23:57;97440.50;;;5.07;100.00
967;BME280;56108;48.730;9.304;2023-12-20T04:26:05;97442.78;;;4.95;100.00
967;BME280;56108;48.730;9.304;2023-12-20T04:28:13;97454.56;;;4.88;100.00
967;BME280;56108;48.730;9.304;2023-12-20T04:30:21;97455.72;;;4.83;100.00
967;BME280;56108;48.730;9.304;2023-12-20T04:32:27;97464.13;;;4.91;100.00
967;BME280;56108;48.730;9.304;2023-12-20T04:34:36;97479.16;;;5.06;100.00
967;BME280;56108;48.730;9.304;2023-12-20T04:36:45;97474.19;;;5.00;100.00
967;BME280;56108;48.730;9.304;2023-12-20T04:38:56;97477.06;;;4.95;100.00
967;BME280;56108;48.730;9.304;2023-12-20T04:41:05;97471.97;;;4.92;100.00
967;BME280;56108;48.730;9.304;2023-12-20T04:43:10;97473.78;;;4.90;100.00
967;BME280;56108;48.730;9.304;2023-12-20T04:45:18;97471.69;;;4.80;100.00
967;BME280;56108;48.730;9.304;2023-12-20T04:47:25;97474.19;;;4.83;100.00
967;BME280;56108;48.730;9.304;2023-12-20T04:49:33;97470.25;;;4.91;100.00
967;BME280;56108;48.730;9.304;2023-12-20T04:51:42;97485.78;;;4.97;100.00
967;BME280;56108;48.730;9.304;2023-12-20T04:53:48;97488.34;;;4.80;100.00
967;BME280;56108;48.730;9.304;2023-12-20T04:55:58;97496.63;;;4.91;100.00
967;BME280;56108;48.730;9.304;2023-12-20T04:58:07;97505.53;;;4.89;100.00
967;BME280;56108;48.730;9.304;2023-12-20T05:00:16;97494.97;;;4.89;100.00
967;BME280;56108;48.730;9.304;2023-12-20T05:02:24;97492.94;;;4.77;100.00
967;BME280;56108;48.730;9.304;2023-12-20T05:04:32;97485.25;;;4.72;100.00
967;BME280;56108;48.730;9.304;2023-12-20T05:06:41;97491.75;;;4.65;100.00
967;BME280;56108;48.730;9.304;2023-12-20T05:08:49;97496.09;;;4.66;100.00
967;BME280;56108;48.730;9.304;2023-12-20T05:11:00;97492.50;;;4.67;100.00
967;BME280;56108;48.730;9.304;2023-12-20T05:13:09;97493.06;;;4.74;100.00
967;BME280;56108;48.730;9.304;2023-12-20T05:15:17;97503.63;;;4.74;100.00
967;BME280;56108;48.730;9.304;2023-12-20T05:17:26;97500.03;;;4.75;100.00
967;BME280;56108;48.730;9.304;2023-12-20T05:19:34;97491.50;;;4.69;100.00
967;BME280;56108;48.730;9.304;2023-12-20T05:21:43;97494.13;;;4.69;100.00
967;BME280;56108;48.730;9.304;2023-12-20T05:23:51;97491.22;;;4.76;100.00
967;BME280;56108;48.730;9.304;2023-12-20T05:26:02;97503.41;;;4.78;100.00
967;BME280;56108;48.730;9.304;2023-12-20T05:28:11;97515.66;;;4.79;100.00
967;BME280;56108;48.730;9.304;2023-12-20T05:30:19;97511.09;;;4.83;100.00
967;BME280;56108;48.730;9.304;2023-12-20T05:32:28;97511.66;;;4.89;100.00
967;BME280;56108;48.730;9.304;2023-12-20T05:34:33;97521.84;;;4.78;100.00
967;BME280;56108;48.730;9.304;2023-12-20T05:36:42;97521.22;;;4.92;100.00
967;BME280;56108;48.730;9.304;2023-12-20T05:38:50;97527.91;;;4.80;100.00
967;BME280;56108;48.730;9.304;2023-12-20T05:40:56;97529.53;;;4.83;100.00
967;BME280;56108;48.730;9.304;2023-12-20T05:43:06;97530.78;;;4.76;100.00
967;BME280;56108;48.730;9.304;2023-12-20T05:45:15;97531.97;;;4.68;100.00
967;BME280;56108;48.730;9.304;2023-12-20T05:47:23;97530.34;;;4.66;100.00
967;BME280;56108;48.730;9.304;2023-12-20T05:49:32;97526.00;;;4.65;100.00
967;BME280;56108;48.730;9.304;2023-12-20T05:51:38;97539.16;;;4.84;100.00
967;BME280;56108;48.730;9.304;2023-12-20T05:53:46;97548.50;;;4.72;100.00
967;BME280;56108;48.730;9.304;2023-12-20T05:55:55;97553.78;;;4.72;100.00
967;BME280;56108;48.730;9.304;2023-12-20T05:58:00;97549.78;;;4.63;100.00
967;BME280;56108;48.730;9.304;2023-12-20T06:00:13;97553.91;;;4.69;100.00
967;BME280;56108;48.730;9.304;2023-12-20T06:02:21;97554.00;;;4.67;100.00
967;BME280;56108;48.730;9.304;2023-12-20T06:04:29;97550.38;;;4.70;100.00
967;BME280;56108;48.730;9.304;2023-12-20T06:06:41;97549.06;;;4.79;100.00
967;BME280;56108;48.730;9.304;2023-12-20T06:08:50;97551.34;;;4.67;100.00
967;BME280;56108;48.730;9.304;2023-12-20T06:10:58;97555.84;;;4.65;100.00
967;BME280;56108;48.730;9.304;2023-12-20T06:13:07;97557.34;;;4.71;100.00
967;BME280;56108;48.730;9.304;2023-12-20T06:15:19;97561.78;;;4.70;100.00
967;BME280;56108;48.730;9.304;2023-12-20T06:17:28;97568.03;;;4.68;100.00
967;BME280;56108;48.730;9.304;2023-12-20T06:19:37;97564.66;;;4.64;100.00
967;BME280;56108;48.730;9.304;2023-12-20T06:21:49;97567.31;;;4.64;100.00
967;BME280;56108;48.730;9.304;2023-12-20T06:23:58;97570.94;;;4.62;100.00
967;BME280;56108;48.730;9.304;2023-12-20T06:26:07;97567.59;;;4.58;100.00
967;BME280;56108;48.730;9.304;2023-12-20T06:28:16;97558.84;;;4.58;100.00
967;BME280;56108;48.730;9.304;2023-12-20T06:30:27;97562.31;;;4.58;100.00
967;BME280;56108;48.730;9.304;2023-12-20T06:32:37;97545.94;;;4.52;100.00
967;BME280;56108;48.730;9.304;2023-12-20T06:34:47;97543.94;;;4.57;100.00
967;BME280;56108;48.730;9.304;2023-12-20T06:36:55;97538.03;;;4.52;100.00
967;BME280;56108;48.730;9.304;2023-12-20T06:39:04;97544.72;;;4.59;100.00
967;BME280;56108;48.730;9.304;2023-12-20T06:41:14;97551.28;;;4.50;100.00
967;BME280;56108;48.730;9.304;2023-12-20T06:43:20;97556.84;;;4.63;100.00
967;BME280;56108;48.730;9.304;2023-12-20T06:45:50;97559.31;;;4.47;100.00
967;BME280;56108;48.730;9.304;2023-12-20T06:47:58;97568.25;;;4.44;100.00
967;BME280;56108;48.730;9.304;2023-12-20T06:50:07;97561.47;;;4.39;100.00
967;BME280;56108;48.730;9.304;2023-12-20T06:52:16;97556.03;;;4.42;100.00
967;BME280;56108;48.730;9.304;2023-12-20T06:54:24;97551.81;;;4.38;100.00
967;BME280;56108;48.730;9.304;2023-12-20T06:56:32;97552.91;;;4.34;100.00
967;BME280;56108;48.730;9.304;2023-12-20T06:58:42;97549.72;;;4.46;100.00
967;BME280;56108;48.730;9.304;2023-12-20T07:00:52;97550.13;;;4.37;100.00
967;BME280;56108;48.730;9.304;2023-12-20T07:03:02;97557.94;;;4.38;100.00
967;BME280;56108;48.730;9.304;2023-12-20T07:05:16;97561.22;;;4.43;100.00
967;BME280;56108;48.730;9.304;2023-12-20T07:07:27;97568.25;;;4.44;100.00
967;BME280;56108;48.730;9.304;2023-12-20T07:09:39;97565.97;;;4.56;100.00
967;BME280;56108;48.730;9.304;2023-12-20T07:11:49;97570.06;;;4.42;100.00
967;BME280;56108;48.730;9.304;2023-12-20T07:13:57;97571.66;;;4.47;100.00
967;BME280;56108;48.730;9.304;2023-12-20T07:16:09;97573.88;;;4.56;100.00
967;BME280;56108;48.730;9.304;2023-12-20T07:18:15;97583.97;;;4.46;100.00
967;BME280;56108;48.730;9.304;2023-12-20T07:20:23;97591.16;;;4.42;100.00
967;BME280;56108;48.730;9.304;2023-12-20T07:22:31;97590.09;;;4.47;100.00
967;BME280;56108;48.730;9.304;2023-12-20T07:24:40;97597.88;;;4.50;100.00
967;BME280;56108;48.730;9.304;2023-12-20T07:26:48;97601.34;;;4.50;100.00
967;BME280;56108;48.730;9.304;2023-12-20T07:28:57;97600.72;;;4.64;100.00
967;BME280;56108;48.730;9.304;2023-12-20T07:31:05;97605.00;;;4.66;100.00
967;BME280;56108;48.730;9.304;2023-12-20T07:33:16;97605.94;;;4.65;100.00
967;BME280;56108;48.730;9.304;2023-12-20T07:35:25;97627.03;;;4.65;100.00
967;BME280;56108;48.730;9.304;2023-12-20T07:37:33;97628.72;;;4.66;100.00
967;BME280;56108;48.730;9.304;2023-12-20T07:39:42;97633.91;;;4.68;100.00
967;BME280;56108;48.730;9.304;2023-12-20T07:41:50;97646.53;;;4.61;100.00
967;BME280;56108;48.730;9.304;2023-12-20T07:43:58;97641.53;;;4.55;100.00
967;BME280;56108;48.730;9.304;2023-12-20T07:46:07;97644.38;;;4.69;100.00
967;BME280;56108;48.730;9.304;2023-12-20T07:48:19;97650.09;;;4.60;100.00
967;BME280;56108;48.730;9.304;2023-12-20T07:50:27;97657.53;;;4.71;100.00
967;BME280;56108;48.730;9.304;2023-12-20T07:52:35;97663.44;;;4.76;100.00
967;BME280;56108;48.730;9.304;2023-12-20T07:54:44;97669.84;;;4.70;100.00
967;BME280;56108;48.730;9.304;2023-12-20T07:56:52;97672.31;;;4.74;100.00
967;BME280;56108;48.730;9.304;2023-12-20T07:58:58;97685.06;;;4.64;100.00
967;BME280;56108;48.730;9.304;2023-12-20T08:01:06;97690.28;;;4.65;100.00
967;BME280;56108;48.730;9.304;2023-12-20T08:03:15;97681.28;;;4.69;100.00
967;BME280;56108;48.730;9.304;2023-12-20T08:05:26;97692.75;;;4.68;100.00
967;BME280;56108;48.730;9.304;2023-12-20T08:07:34;97706.81;;;4.69;100.00
967;BME280;56108;48.730;9.304;2023-12-20T08:09:42;97721.38;;;4.78;100.00
967;BME280;56108;48.730;9.304;2023-12-20T08:11:51;97738.19;;;4.75;100.00
967;BME280;56108;48.730;9.304;2023-12-20T08:13:59;97749.06;;;4.67;100.00
967;BME280;56108;48.730;9.304;2023-12-20T08:16:07;97759.59;;;4.67;100.00
967;BME280;56108;48.730;9.304;2023-12-20T08:18:19;97761.31;;;4.68;100.00
967;BME280;56108;48.730;9.304;2023-12-20T08:20:30;97769.56;;;4.81;100.00
967;BME280;56108;48.730;9.304;2023-12-20T08:22:45;97777.38;;;4.83;100.00
967;BME280;56108;48.730;9.304;2023-12-20T08:24:53;97773.81;;;4.84;100.00
967;BME280;56108;48.730;9.304;2023-12-20T08:27:03;97774.38;;;4.71;100.00
967;BME280;56108;48.730;9.304;2023-12-20T08:29:12;97791.03;;;4.72;100.00
967;BME280;56108;48.730;9.304;2023-12-20T08:31:21;97785.97;;;4.67;100.00
967;BME280;56108;48.730;9.304;2023-12-20T08:33:30;97779.75;;;4.68;100.00
967;BME280;56108;48.730;9.304;2023-12-20T08:35:41;97788.97;;;4.79;100.00
967;BME280;56108;48.730;9.304;2023-12-20T08:37:49;97806.13;;;4.89;100.00
967;BME280;56108;48.730;9.304;2023-12-20T08:39:57;97812.44;;;4.85;100.00
967;BME280;56108;48.730;9.304;2023-12-20T08:42:06;97817.88;;;4.82;100.00
967;BME280;56108;48.730;9.304;2023-12-20T08:44:14;97825.91;;;4.79;100.00
967;BME280;56108;48.730;9.304;2023-12-20T08:46:22;97815.09;;;4.85;100.00
967;BME280;56108;48.730;9.304;2023-12-20T08:48:31;97821.47;;;4.79;100.00
967;BME280;56108;48.730;9.304;2023-12-20T08:50:42;97833.53;;;4.85;100.00
967;BME280;56108;48.730;9.304;2023-12-20T08:52:51;97836.13;;;4.86;100.00
967;BME280;56108;48.730;9.304;2023-12-20T08:54:59;97834.00;;;4.74;100.00
967;BME280;56108;48.730;9.304;2023-12-20T08:57:07;97848.56;;;4.83;100.00
967;BME280;56108;48.730;9.304;2023-12-20T08:59:16;97852.63;;;4.69;100.00
967;BME280;56108;48.730;9.304;2023-12-20T09:01:24;97844.72;;;4.69;100.00
967;BME280;56108;48.730;9.304;2023-12-20T09:03:33;97850.81;;;4.71;100.00
967;BME280;56108;48.730;9.304;2023-12-20T09:05:44;97859.50;;;4.74;100.00
967;BME280;56108;48.730;9.304;2023-12-20T09:07:52;97853.03;;;4.60;100.00
967;BME280;56108;48.730;9.304;2023-12-20T09:10:00;97843.06;;;4.47;100.00
967;BME280;56108;48.730;9.304;2023-12-20T09:12:09;97846.31;;;4.31;100.00
967;BME280;56108;48.730;9.304;2023-12-20T09:14:17;97844.19;;;4.19;100.00
967;BME280;56108;48.730;9.304;2023-12-20T09:16:25;97824.69;;;4.01;100.00
967;BME280;56108;48.730;9.304;2023-12-20T09:18:34;97816.00;;;3.99;100.00
967;BME280;56108;48.730;9.304;2023-12-20T09:20:45;97821.16;;;4.02;100.00
967;BME280;56108;48.730;9.304;2023-12-20T09:22:54;97818.03;;;4.14;100.00
967;BME280;56108;48.730;9.304;2023-12-20T09:25:04;97818.28;;;4.08;100.00
967;BME280;56108;48.730;9.304;2023-12-20T09:27:12;97816.00;;;3.99;100.00
967;BME280;56108;48.730;9.304;2023-12-20T09:29:21;97828.91;;;4.05;100.00
967;BME280;56108;48.730;9.304;2023-12-20T09:31:30;97828.13;;;4.03;100.00
967;BME280;56108;48.730;9.304;2023-12-20T09:33:38;97832.97;;;3.92;100.00
967;BME280;56108;48.730;9.304;2023-12-20T09:35:50;97842.22;;;4.02;100.00
967;BME280;56108;48.730;9.304;2023-12-20T09:37:59;97839.09;;;4.36;100.00
967;BME280;56108;48.730;9.304;2023-12-20T09:40:10;97857.00;;;5.32;100.00
967;BME280;56108;48.730;9.304;2023-12-20T09:42:23;97867.72;;;5.87;100.00
967;BME280;56108;48.730;9.304;2023-12-20T09:44:33;97865.00;;;6.26;100.00
967;BME280;56108;48.730;9.304;2023-12-20T09:46:44;97870.78;;;7.40;100.00
967;BME280;56108;48.730;9.304;2023-12-20T09:48:53;97873.41;;;8.06;100.00
967;BME280;56108;48.730;9.304;2023-12-20T09:51:05;97883.25;;;8.67;100.00
967;BME280;56108;48.730;9.304;2023-12-20T09:53:15;97902.34;;;9.34;96.20
967;BME280;56108;48.730;9.304;2023-12-20T09:55:25;97905.09;;;9.02;94.34
967;BME280;56108;48.730;9.304;2023-12-20T09:57:35;97901.69;;;9.00;93.69
967;BME280;56108;48.730;9.304;2023-12-20T09:59:43;97892.28;;;8.00;100.00
967;BME280;56108;48.730;9.304;2023-12-20T10:01:53;97876.06;;;6.70;100.00
967;BME280;56108;48.730;9.304;2023-12-20T10:04:05;97881.22;;;5.99;100.00
967;BME280;56108;48.730;9.304;2023-12-20T10:06:36;97872.31;;;5.44;100.00
967;BME280;56108;48.730;9.304;2023-12-20T10:08:43;97870.28;;;5.10;100.00
967;BME280;56108;48.730;9.304;2023-12-20T10:10:52;97866.91;;;4.86;100.00
967;BME280;56108;48.730;9.304;2023-12-20T10:13:04;97862.69;;;4.82;100.00
967;BME280;56108;48.730;9.304;2023-12-20T10:15:14;97854.81;;;4.60;100.00
967;BME280;56108;48.730;9.304;2023-12-20T10:17:23;97860.22;;;4.57;100.00
967;BME280;56108;48.730;9.304;2023-12-20T10:19:34;97862.78;;;4.58;100.00
967;BME280;56108;48.730;9.304;2023-12-20T10:21:45;97860.22;;;4.57;100.00
967;BME280;56108;48.730;9.304;2023-12-20T10:23:54;97848.88;;;4.55;100.00
967;BME280;56108;48.730;9.304;2023-12-20T10:26:02;97850.97;;;4.47;100.00
967;BME280;56108;48.730;9.304;2023-12-20T10:28:13;97845.50;;;4.51;100.00
967;BME280;56108;48.730;9.304;2023-12-20T10:30:24;97842.94;;;4.50;100.00
967;BME280;56108;48.730;9.304;2023-12-20T10:32:32;97844.31;;;4.58;100.00
967;BME280;56108;48.730;9.304;2023-12-20T10:34:40;97836.72;;;4.72;100.00
967;BME280;56108;48.730;9.304;2023-12-20T10:36:52;97839.63;;;5.07;100.00
967;BME280;56108;48.730;9.304;2023-12-20T10:39:01;97833.19;;;5.33;100.00
967;BME280;56108;48.730;9.304;2023-12-20T10:41:11;97843.34;;;5.61;100.00
967;BME280;56108;48.730;9.304;2023-12-20T10:43:22;97836.59;;;5.74;100.00
967;BME280;56108;48.730;9.304;2023-12-20T10:45:32;97848.13;;;5.92;100.00
967;BME280;56108;48.730;9.304;2023-12-20T10:47:41;97843.94;;;5.87;100.00
967;BME280;56108;48.730;9.304;2023-12-20T10:49:52;97848.03;;;5.94;100.00
967;BME280;56108;48.730;9.304;2023-12-20T10:52:02;97847.44;;;5.87;100.00
967;BME280;56108;48.730;9.304;2023-12-20T10:54:12;97848.28;;;5.88;100.00
967;BME280;56108;48.730;9.304;2023-12-20T10:56:20;97842.94;;;5.89;100.00
967;BME280;56108;48.730;9.304;2023-12-20T10:58:29;97843.47;;;5.97;100.00
967;BME280;56108;48.730;9.304;2023-12-20T11:00:40;97841.59;;;5.81;100.00
967;BME280;56108;48.730;9.304;2023-12-20T11:02:51;97845.38;;;5.75;100.00
967;BME280;56108;48.730;9.304;2023-12-20T11:05:09;97839.78;;;5.62;100.00
967;BME280;56108;48.730;9.304;2023-12-20T11:07:28;97837.09;;;5.64;100.00
967;BME280;56108;48.730;9.304;2023-12-20T11:09:45;97830.88;;;5.65;100.00
967;BME280;56108;48.730;9.304;2023-12-20T11:12:01;97834.94;;;5.72;100.00
967;BME280;56108;48.730;9.304;2023-12-20T11:14:15;97831.16;;;5.78;100.00
967;BME280;56108;48.730;9.304;2023-12-20T11:16:26;97841.06;;;5.72;100.00
967;BME280;56108;48.730;9.304;2023-12-20T11:18:50;97828.53;;;5.78;100.00
967;BME280;56108;48.730;9.304;2023-12-20T11:21:01;97833.03;;;5.75;100.00
967;BME280;56108;48.730;9.304;2023-12-20T11:23:13;97830.28;;;5.58;100.00
967;BME280;56108;48.730;9.304;2023-12-20T11:25:22;97830.28;;;5.58;100.00
967;BME280;56108;48.730;9.304;2023-12-20T11:27:30;97828.25;;;5.65;100.00
967;BME280;56108;48.730;9.304;2023-12-20T11:29:39;97832.66;;;5.64;100.00
967;BME280;56108;48.730;9.304;2023-12-20T11:31:47;97826.16;;;5.71;100.00
967;BME280;56108;48.730;9.304;2023-12-20T11:34:12;97831.75;;;5.65;100.00
967;BME280;56108;48.730;9.304;2023-12-20T11:36:25;97833.38;;;5.68;100.00
967;BME280;56108;48.730;9.304;2023-12-20T11:38:38;97830.16;;;5.61;100.00
967;BME280;56108;48.730;9.304;2023-12-20T11:40:44;97828.56;;;5.57;100.00
967;BME280;56108;48.730;9.304;2023-12-20T11:42:53;97826.78;;;5.58;100.00
967;BME280;56108;48.730;9.304;2023-12-20T11:44:59;97823.47;;;5.54;100.00